Latest Weather Observations for Clermont Airport

IDQ60801

Issued at 1:52 pm EST Tuesday 17 July 2018 (issued every 10 minutes, with the page automatically refreshed every 10 minutes)

About weather observations | Map of weather stations | Latest weather observations for QLD | Other Formats
Station Details ID: 035124 Name: CLERMONT AIRPORT Lat: -22.78 Lon: 147.62 Height: 270.27 m
Data from the previous 72 hours. | See also: Recent months at Clermont Airport
Date/Time
EST
Temp
°C
App
Temp
°C
Dew
Point
°C
Rel
Hum
%
Delta-T
°C
Wind Press
QNH
hPa
Press
MSL
hPa
Rain since
9am
mm
Dir  Spd
km/h
Gust
km/h
Spd
kts
Gust
kts
17/01:30pm 23.0 19.8 -3.3 17 11.3 S 4 7 2 4 1017.9 1017.6 0.0
17/01:00pm 23.2 19.8 -2.4 18 11.2 NE 6 13 3 7 1018.4 1018.0 0.0
17/12:30pm 22.1 18.4 -2.6 19 10.7 E 7 15 4 8 1019.0 1018.7 0.0
17/12:00pm 21.6 18.0 -2.3 20 10.3 ESE 7 13 4 7 1019.5 1019.2 0.0
17/11:30am 20.3 15.8 -3.4 20 9.9 SE 11 17 6 9 1020.0 1019.7 0.0
17/11:00am 18.5 13.5 -4.2 21 9.2 SSE 13 19 7 10 1020.6 1020.3 0.0
17/10:30am 17.4 12.8 -3.9 23 8.6 SE 11 19 6 10 1020.9 1020.6 0.0
17/10:00am 16.4 11.5 -3.7 25 8.0 SSE 13 20 7 11 1021.1 1020.8 0.0
17/09:30am 15.3 10.4 -3.6 27 7.5 SSE 13 24 7 13 1021.0 1020.7 0.0
17/09:00am 13.6 9.4 -3.6 30 6.7 S 9 15 5 8 1020.9 1020.6 0.0
17/08:30am 11.1 6.9 -4.1 34 5.7 SSW 9 11 5 6 1020.5 1020.2 0.0
17/08:00am 7.8 3.9 -4.9 40 4.5 SSW 7 9 4 5 1020.2 1019.9 0.0
17/07:50am 6.1 2.1 -5.8 42 4.0 SW 7 9 4 5 1020.1 1019.8 0.0
17/07:30am 1.1 -3.0 -9.2 46 3.1 SW 6 7 3 4 1019.9 1019.6 0.0
17/07:00am -1.6 -5.2 -11.7 46 2.6 W 2 4 1 2 1019.6 1019.3 0.0
17/06:30am -1.4 -4.6 -11.8 45 2.7 CALM 0 2 0 1 1019.4 1019.1 0.0
17/06:00am -1.6 -4.8 -12.2 44 2.7 CALM 0 2 0 1 1019.1 1018.8 0.0
17/05:30am -1.5 -4.7 -12.4 43 2.8 CALM 0 0 0 0 1018.7 1018.4 0.0
17/05:00am -1.0 -5.3 -12.0 43 2.8 SW 6 7 3 4 1018.5 1018.2 0.0
17/04:30am -1.0 -4.2 -12.3 42 2.9 CALM 0 0 0 0 1018.5 1018.2 0.0
17/04:00am -0.7 -4.7 -12.3 41 3.0 SW 4 4 2 2 1018.3 1017.9 0.0
17/03:30am -0.5 -4.5 -12.4 40 3.1 WSW 4 6 2 3 1018.4 1018.0 0.0
17/03:00am 0.0 -4.4 -12.6 38 3.3 SW 6 7 3 4 1018.4 1018.0 0.0
17/02:30am 0.2 -3.0 -12.7 37 3.4 CALM 0 0 0 0 1018.3 1017.9 0.0
17/02:00am 0.0 -3.7 -13.3 36 3.4 SW 2 4 1 2 1018.6 1018.3 0.0
17/01:30am 1.1 -2.2 -13.0 34 3.8 CALM 0 2 0 1 1018.5 1018.2 0.0
17/01:00am 1.1 -2.2 -13.3 33 3.8 CALM 0 0 0 0 1018.7 1018.4 0.0
17/12:30am 2.0 -1.6 -12.6 33 4.1 WSW 2 4 1 2 1018.5 1018.2 0.0
17/12:00am 1.7 -1.9 -13.2 32 4.0 WSW 2 6 1 3 1018.5 1018.2 0.0
 
Date/Time
EST
Temp
°C
App
Temp
°C
Dew
Point
°C
Rel
Hum
%
Delta-T
°C
Wind Press
QNH
hPa
Press
MSL
hPa
Rain since
9am
mm
Dir  Spd
km/h
Gust
km/h
Spd
kts
Gust
kts
16/11:30pm 2.6 -0.7 -13.2 30 4.4 CALM 0 0 0 0 1018.4 1018.0 0.0
16/11:00pm 3.5 0.3 -12.8 29 4.7 CALM 0 0 0 0 1018.4 1018.0 0.0
16/10:30pm 4.6 1.4 -12.8 27 5.1 CALM 0 0 0 0 1018.3 1017.9 0.0
16/10:00pm 5.2 2.0 -12.7 26 5.0 CALM 0 0 0 0 1017.9 1017.6 0.0
16/09:30pm 5.7 1.7 -12.8 25 5.2 NNW 4 6 2 3 1017.8 1017.5 0.0
16/09:00pm 6.7 3.1 -12.4 24 5.5 NW 2 6 1 3 1017.5 1017.2 0.0
16/08:30pm 7.8 4.6 -12.0 23 5.9 CALM 0 2 0 1 1017.4 1017.1 0.0
16/08:00pm 7.9 3.9 -13.0 21 6.1 WSW 4 6 2 3 1016.9 1016.6 0.0
16/07:30pm 9.7 6.0 -14.1 17 6.9 W 2 4 1 2 1016.4 1016.1 0.0
16/07:00pm 11.6 8.3 -14.1 15 7.7 CALM 0 0 0 0 1016.1 1015.8 0.0
16/06:30pm 15.0 11.7 -13.2 13 9.1 CALM 0 0 0 0 1015.6 1015.3 0.0
16/06:00pm 19.0 15.8 -12.1 11 10.8 CALM 0 0 0 0 1015.4 1015.1 0.0
16/05:30pm 21.3 16.5 -10.3 11 11.7 SW 9 15 5 8 1015.2 1014.8 0.0
16/05:00pm 22.9 17.4 -10.3 10 12.5 SW 13 20 7 11 1014.8 1014.4 0.0
16/04:30pm 23.8 17.6 -8.4 11 12.7 SW 17 26 9 14 1014.7 1014.3 0.0
16/04:00pm 24.6 19.4 -6.7 12 12.8 WSW 13 20 7 11 1014.4 1014.0 0.0
16/03:30pm 24.4 18.6 -4.8 14 12.4 WSW 17 28 9 15 1014.2 1013.8 0.0
16/03:00pm 25.3 20.2 -2.3 16 12.4 W 15 30 8 16 1014.3 1013.9 0.0
16/02:30pm 25.2 21.0 -0.8 18 12.0 WSW 11 20 6 11 1014.4 1014.0 0.0
16/02:00pm 24.6 18.8 -1.3 18 11.7 W 19 32 10 17 1014.6 1014.2 0.0
16/01:30pm 25.3 21.3 2.7 23 11.1 W 13 28 7 15 1014.7 1014.3 0.0
16/01:00pm 24.1 19.2 2.3 24 10.5 WNW 17 32 9 17 1014.9 1014.5 0.0
16/12:30pm 24.1 20.2 3.4 26 10.2 WSW 13 20 7 11 1015.4 1015.1 0.0
16/12:00pm 23.9 20.0 5.3 30 9.5 W 15 28 8 15 1015.9 1015.6 0.0
16/11:30am 23.0 19.9 7.1 36 8.3 WNW 13 26 7 14 1016.3 1016.0 0.0
16/11:00am 22.0 20.4 8.9 43 7.0 NW 7 13 4 7 1016.8 1016.5 0.0
16/10:30am 21.2 18.2 9.1 46 6.5 NW 15 22 8 12 1017.2 1016.9 0.0
16/10:00am 19.4 15.4 8.4 49 5.8 NNW 19 28 10 15 1017.3 1017.0 0.0
16/09:30am 18.4 14.4 8.1 51 5.4 N 19 26 10 14 1017.4 1017.1 0.0
16/09:00am 15.8 14.1 6.0 52 4.8 NE 4 7 2 4 1017.5 1017.2 0.0
16/08:30am 11.4 9.5 2.7 55 3.8 SW 2 4 1 2 1017.5 1017.2 0.0
16/08:00am 8.9 7.1 1.3 59 3.2 CALM 0 0 0 0 1017.3 1017.0 0.0
16/07:30am 5.1 2.9 -1.8 61 2.6 CALM 0 0 0 0 1016.9 1016.6 0.0
16/07:00am 3.3 0.8 -3.7 60 2.4 CALM 0 0 0 0 1016.6 1016.3 0.0
16/06:30am 3.8 1.4 -3.5 59 2.5 CALM 0 0 0 0 1016.4 1016.1 0.0
16/06:00am 3.7 1.2 -3.6 59 2.5 CALM 0 0 0 0 1016.3 1016.0 0.0
16/05:30am 4.7 2.0 -2.8 58 2.7 N 2 4 1 2 1016.0 1015.7 0.0
16/05:00am 4.5 1.4 -3.0 58 2.7 N 4 4 2 2 1015.8 1015.5 0.0
16/04:30am 3.6 -0.1 -4.3 56 2.7 NW 6 7 3 4 1015.8 1015.5 0.0
16/04:00am 3.1 -0.6 -5.0 55 2.7 W 6 7 3 4 1015.7 1015.4 0.0
16/03:30am 3.3 0.7 -5.1 54 2.8 CALM 0 2 0 1 1015.8 1015.5 0.0
16/03:00am 3.9 1.3 -4.8 53 2.9 CALM 0 0 0 0 1015.8 1015.5 0.0
16/02:30am 4.0 0.3 -4.7 53 2.9 NW 6 7 3 4 1015.8 1015.5 0.0
16/02:00am 4.1 0.4 -4.9 52 3.0 NW 6 7 3 4 1015.6 1015.3 0.0
16/01:30am 4.3 0.6 -4.9 51 3.1 WNW 6 7 3 4 1015.5 1015.2 0.0
16/01:00am 5.2 2.0 -3.8 52 3.2 W 4 6 2 3 1015.7 1015.4 0.0
16/12:30am 4.5 1.9 -4.7 51 3.1 CALM 0 0 0 0 1015.5 1015.2 0.0
16/12:00am 4.8 2.2 -5.0 49 3.3 CALM 0 0 0 0 1015.2 1014.8 0.0
 
Date/Time
EST
Temp
°C
App
Temp
°C
Dew
Point
°C
Rel
Hum
%
Delta-T
°C
Wind Press
QNH
hPa
Press
MSL
hPa
Rain since
9am
mm
Dir  Spd
km/h
Gust
km/h
Spd
kts
Gust
kts
15/11:30pm 5.2 2.6 -5.2 47 3.5 CALM 0 0 0 0 1015.4 1015.1 0.0
15/11:00pm 5.7 3.1 -4.7 47 3.6 CALM 0 0 0 0 1015.5 1015.2 0.0
15/10:30pm 6.1 3.5 -4.9 45 3.8 CALM 0 0 0 0 1015.6 1015.3 0.0
15/10:00pm 6.5 3.9 -5.2 43 4.0 CALM 0 0 0 0 1015.8 1015.5 0.0
15/09:30pm 7.9 5.3 -4.5 41 4.4 CALM 0 0 0 0 1015.9 1015.6 0.0
15/09:00pm 8.0 5.4 -5.1 39 4.6 CALM 0 0 0 0 1016.0 1015.7 0.0
15/08:30pm 8.6 4.8 -5.6 36 5.0 SW 6 6 3 3 1015.6 1015.3 0.0
15/08:00pm 10.5 7.5 -4.7 34 5.6 WNW 2 4 1 2 1015.5 1015.2 0.0
15/07:30pm 11.0 8.0 -5.5 31 6.0 WSW 2 4 1 2 1015.2 1014.8 0.0
15/07:00pm 11.8 8.3 -6.1 28 6.5 SW 4 6 2 3 1014.9 1014.5 0.0
15/06:30pm 15.0 12.4 -4.8 25 7.6 CALM 0 0 0 0 1014.7 1014.3 0.0
15/06:00pm 17.3 14.4 -4.0 23 8.6 SSE 2 2 1 1 1014.3 1013.9 0.0
15/05:30pm 20.4 17.4 -2.0 22 9.7 SE 4 7 2 4 1014.0 1013.7 0.0
15/05:00pm 21.5 18.0 -1.1 22 10.0 SE 7 11 4 6 1014.0 1013.7 0.0
15/04:30pm 22.1 19.0 0.0 23 10.1 SSW 6 11 3 6 1014.2 1013.8 0.0
15/04:00pm 22.8 19.9 1.2 24 10.1 SE 6 13 3 7 1014.2 1013.8 0.0
15/03:30pm 22.9 20.4 1.3 24 10.2 ENE 4 6 2 3 1014.4 1014.0 0.0
15/03:00pm 22.2 19.4 1.8 26 9.6 SSE 6 11 3 6 1014.7 1014.3 0.0
15/02:30pm 22.6 19.9 2.7 27 9.6 SSE 6 13 3 7 1014.9 1014.5 0.0
15/02:00pm 22.4 20.5 3.0 28 9.4 NW 2 9 1 5 1015.2 1014.8 0.0
15/01:30pm 21.3 18.7 3.0 30 8.8 E 6 11 3 6 1015.7 1015.4 0.0
15/01:00pm 20.9 18.4 3.6 32 8.4 ENE 6 11 3 6 1016.1 1015.8 0.0
15/12:30pm 20.4 17.9 3.6 33 8.1 NE 6 11 3 6 1016.7 1016.4 0.0
15/12:00pm 19.3 16.9 4.3 37 7.3 SSE 6 11 3 6 1017.3 1017.0 0.0
15/11:30am 18.5 16.6 4.7 40 6.7 W 4 7 2 4 1017.9 1017.6 0.0
15/11:00am 17.8 15.6 5.4 44 6.1 ESE 6 13 3 7 1018.4 1018.0 0.0
15/10:30am 16.3 14.3 4.4 45 5.7 SE 4 7 2 4 1018.8 1018.5 0.0
15/10:00am 14.6 12.3 2.5 44 5.4 SSE 4 9 2 5 1019.0 1018.7 0.0
15/09:30am 13.0 10.0 0.7 43 5.3 S 6 9 3 5 1019.4 1019.1 0.0
15/09:00am 11.7 8.6 0.2 45 4.8 S 6 9 3 5 1019.5 1019.2 0.0
15/08:30am 9.3 6.1 -0.8 49 4.0 SSE 6 9 3 5 1019.2 1018.9 0.0
15/08:00am 7.1 4.2 -1.3 55 3.2 SSW 4 6 2 3 1019.1 1018.8 0.0
15/07:30am 2.1 -0.9 -5.1 59 2.5 WSW 2 4 1 2 1018.9 1018.6 0.0
15/07:00am 0.4 -2.8 -6.7 59 2.2 SW 2 4 1 2 1018.7 1018.4 0.0
15/06:30am 0.2 -2.6 -7.3 57 2.3 CALM 0 2 0 1 1018.3 1017.9 0.0
15/06:00am 0.8 -2.4 -7.0 56 2.4 WSW 2 4 1 2 1017.8 1017.5 0.0
15/05:30am 1.3 -2.2 -6.7 55 2.6 W 4 6 2 3 1017.4 1017.1 0.0
15/05:00am 1.8 -1.7 -6.5 54 2.7 WSW 4 6 2 3 1017.1 1016.8 0.0
15/04:30am 2.0 -1.9 -6.1 55 2.7 SW 6 7 3 4 1017.0 1016.7 0.0
15/04:00am 0.9 -2.7 -7.3 54 2.6 WSW 4 6 2 3 1017.2 1016.9 0.0
15/03:30am 0.7 -3.0 -8.0 52 2.7 WSW 4 6 2 3 1017.3 1017.0 0.0
15/03:00am 1.1 -1.8 -7.9 51 2.8 CALM 0 4 0 2 1017.4 1017.1 0.0
15/02:30am 1.9 -1.3 -7.4 50 3.0 WSW 2 6 1 3 1017.4 1017.1 0.0
15/02:00am 2.2 -1.8 -7.4 49 3.1 SW 6 9 3 5 1017.4 1017.1 0.0
15/01:30am 2.7 -0.5 -7.2 48 3.3 WNW 2 4 1 2 1017.5 1017.2 0.0
15/01:00am 2.4 -0.8 -7.7 47 3.2 WSW 2 6 1 3 1017.6 1017.3 0.0
15/12:30am 3.0 0.1 -7.5 46 3.4 CALM 0 6 0 3 1017.5 1017.2 0.0
15/12:00am 3.3 -0.3 -7.5 45 3.6 WSW 4 4 2 2 1017.6 1017.3 0.0
 
Date/Time
EST
Temp
°C
App
Temp
°C
Dew
Point
°C
Rel
Hum
%
Delta-T
°C
Wind Press
QNH
hPa
Press
MSL
hPa
Rain since
9am
mm
Dir  Spd
km/h
Gust
km/h
Spd
kts
Gust
kts
14/11:30pm 3.8 0.2 -7.3 44 3.5 W 4 6 2 3 1017.7 1017.4 0.0
14/11:00pm 4.5 1.7 -7.3 42 3.8 CALM 0 0 0 0 1017.7 1017.4 0.0
14/10:30pm 4.8 1.2 -7.6 40 3.9 W 4 6 2 3 1017.7 1017.4 0.0
14/10:00pm 5.8 3.0 -7.4 38 4.3 CALM 0 0 0 0 1017.7 1017.4 0.0
14/09:30pm 6.3 3.4 -7.6 36 4.5 CALM 0 4 0 2 1017.4 1017.1 0.0
14/09:00pm 6.9 3.7 -7.5 35 4.7 S 2 4 1 2 1017.3 1017.0 0.0
14/08:30pm 8.2 5.3 -7.9 31 5.3 CALM 0 4 0 2 1017.0 1016.7 0.0
14/08:00pm 9.6 6.7 -7.5 29 5.8 CALM 0 0 0 0 1016.8 1016.5 0.0
14/07:30pm 11.1 8.3 -7.2 27 6.4 CALM 0 0 0 0 1016.7 1016.4 0.0
14/07:00pm 11.9 8.6 -8.0 24 6.9 SE 2 4 1 2 1016.3 1016.0 0.0
14/06:30pm 15.0 11.9 -6.5 22 8.0 SSE 2 6 1 3 1016.1 1015.8 0.0
14/06:00pm 17.8 14.5 -4.8 21 9.0 SSE 4 6 2 3 1015.9 1015.6 0.0
14/05:30pm 19.6 16.0 -3.9 20 9.7 S 6 9 3 5 1015.8 1015.5 0.0
14/05:00pm 21.1 18.0 -2.7 20 10.2 SSW 4 7 2 4 1015.7 1015.4 0.0
14/04:30pm 21.2 17.5 -3.3 19 10.4 S 7 13 4 7 1015.5 1015.2 0.0
14/04:00pm 21.6 18.0 -2.3 20 10.4 SSW 7 11 4 6 1015.5 1015.2 0.0
14/03:30pm 22.4 19.9 -1.0 21 10.5 N 2 6 1 3 1015.4 1015.1 0.0
14/03:00pm 21.1 17.2 -1.4 22 9.9 S 9 17 5 9 1015.8 1015.5 0.0
14/02:30pm 21.1 17.3 -0.8 23 9.7 SSE 9 15 5 8 1016.1 1015.8 0.0
14/02:00pm 21.5 18.2 0.1 24 9.7 E 7 15 4 8 1016.4 1016.1 0.0

Other Formats:

Comma delimited format used in spreadsheet applications
http://www.bom.gov.au/fwo/IDQ60801/IDQ60801.94395.axf

JavaScript Object Notation format (JSON) in row-major order
http://www.bom.gov.au/fwo/IDQ60801/IDQ60801.94395.json